Time;durP1;ratioP1;P1;durP2;ratioP2;P2;SDS_P1;SDS_P2;PMS_P1;PMS_P2;Temp;Humidity;BMP_temperature;BMP_pressure;BME280_temperature;BME280_humidity;BME280_pressure;Samples;Min_cycle;Max_cycle;Signal;HPM_P1;HPM_P2
2023/03/19 00:01:17;;;;;;;35.33;25.25;;;11.80;99.90;;;;;;4936641;28;20278;-76
2023/03/19 00:03:43;;;;;;;37.80;26.77;;;11.80;99.90;;;;;;4939601;29;20187;-77
2023/03/19 00:06:09;;;;;;;34.13;25.90;;;11.80;99.90;;;;;;4938243;29;20521;-77
2023/03/19 00:08:35;;;;;;;34.95;26.20;;;11.70;99.90;;;;;;4938884;29;20215;-77
2023/03/19 00:11:09;;;;;;;36.03;26.30;;;11.80;99.90;;;;;;4937351;29;20188;-77
2023/03/19 00:13:35;;;;;;;32.78;24.95;;;11.80;99.90;;;;;;4921842;29;20217;-77
2023/03/19 00:16:00;;;;;;;33.22;25.13;;;11.80;99.90;;;;;;4953405;29;20242;-77
2023/03/19 00:18:26;;;;;;;34.75;25.15;;;11.80;99.90;;;;;;4937411;29;20176;-78
2023/03/19 00:20:52;;;;;;;32.13;24.95;;;11.80;99.90;;;;;;4953392;28;20238;-77
2023/03/19 00:23:18;;;;;;;34.22;25.77;;;11.80;99.90;;;;;;4939139;29;20191;-77
2023/03/19 00:25:44;;;;;;;34.60;25.48;;;11.80;99.90;;;;;;4952942;29;20246;-77
2023/03/19 00:28:09;;;;;;;38.28;26.15;;;11.80;99.90;;;;;;4936966;29;20312;-78
2023/03/19 00:30:35;;;;;;;32.88;25.65;;;11.80;99.90;;;;;;4938236;29;20188;-77
2023/03/19 00:33:01;;;;;;;36.67;26.42;;;11.80;99.90;;;;;;4938418;29;20221;-82
2023/03/19 00:35:27;;;;;;;33.45;24.85;;;11.80;99.90;;;;;;4936995;29;20366;-79
2023/03/19 00:37:54;;;;;;;31.60;25.05;;;11.80;99.90;;;;;;4937076;29;20274;-77
2023/03/19 00:40:19;;;;;;;37.33;25.77;;;11.80;99.90;;;;;;4938225;29;20188;-78
2023/03/19 00:42:45;;;;;;;36.17;25.05;;;11.80;99.90;;;;;;4937755;29;20198;-77
2023/03/19 00:45:12;;;;;;;33.72;24.40;;;11.80;99.90;;;;;;4952888;29;20206;-77
2023/03/19 00:47:38;;;;;;;31.90;24.90;;;11.80;99.90;;;;;;4937209;29;20187;-77
2023/03/19 00:50:05;;;;;;;31.77;24.88;;;11.80;99.90;;;;;;4937173;29;20262;-78
2023/03/19 00:52:31;;;;;;;35.42;25.00;;;11.80;99.90;;;;;;4938074;29;20238;-77
2023/03/19 00:54:57;;;;;;;34.03;24.42;;;11.80;99.90;;;;;;4952672;28;20183;-77
2023/03/19 00:57:23;;;;;;;34.90;24.65;;;11.80;99.90;;;;;;4953235;28;20246;-77
2023/03/19 00:59:50;;;;;;;32.67;24.65;;;11.80;99.90;;;;;;4936382;29;20187;-77
2023/03/19 01:02:16;;;;;;;34.78;25.75;;;11.80;99.90;;;;;;4952465;29;20235;-77
2023/03/19 01:04:42;;;;;;;34.47;24.80;;;11.80;99.90;;;;;;4937777;29;20183;-78
2023/03/19 01:07:10;;;;;;;34.33;25.33;;;11.80;99.90;;;;;;4937770;29;20286;-78
2023/03/19 01:09:35;;;;;;;33.90;24.42;;;11.80;99.90;;;;;;4936993;29;20188;-77
2023/03/19 01:12:03;;;;;;;33.63;24.55;;;11.80;99.90;;;;;;4936961;29;20231;-78
2023/03/19 01:14:31;;;;;;;35.35;25.55;;;11.80;99.90;;;;;;4920978;29;20238;-77
2023/03/19 01:16:57;;;;;;;34.15;25.08;;;11.80;99.90;;;;;;4937959;29;20257;-77
2023/03/19 01:19:23;;;;;;;35.13;24.25;;;11.80;99.90;;;;;;4936176;29;20186;-77
2023/03/19 01:21:49;;;;;;;33.60;25.33;;;11.80;99.90;;;;;;4920513;29;20195;-77
2023/03/19 01:24:19;;;;;;;31.83;23.88;;;11.80;99.90;;;;;;4936882;29;20230;-78
2023/03/19 01:26:50;;;;;;;32.40;24.52;;;11.80;99.90;;;;;;4937933;29;20179;-77
2023/03/19 01:29:28;;;;;;;32.70;23.88;;;11.80;99.90;;;;;;4937679;29;20183;-78
2023/03/19 01:31:56;;;;;;;34.05;24.38;;;11.80;99.90;;;;;;4952234;28;20188;-78
2023/03/19 01:34:57;;;;;;;28.42;21.95;;;11.80;99.90;;;;;;4940242;28;20195;-77
2023/03/19 01:37:23;;;;;;;28.58;21.98;;;11.80;99.90;;;;;;4936724;29;20266;-77
2023/03/19 01:39:51;;;;;;;28.17;21.85;;;11.80;99.90;;;;;;4951686;28;20188;-77
2023/03/19 01:42:17;;;;;;;28.23;22.13;;;11.70;99.90;;;;;;4952118;29;20179;-79
2023/03/19 01:44:55;;;;;;;29.40;20.60;;;11.70;99.90;;;;;;4937045;29;20182;-77
2023/03/19 01:47:33;;;;;;;30.30;20.90;;;11.70;99.90;;;;;;4952479;28;20612;-82
2023/03/19 01:50:26;;;;;;;27.50;20.20;;;11.80;99.90;;;;;;4937008;29;20526;-77
2023/03/19 01:53:16;;;;;;;28.30;20.27;;;11.80;99.90;;;;;;4936384;29;20269;-77
2023/03/19 01:56:06;;;;;;;26.88;20.42;;;11.80;99.90;;;;;;4922962;29;20223;-77
2023/03/19 01:58:52;;;;;;;26.83;19.42;;;11.80;99.90;;;;;;4951779;29;20171;-77
2023/03/19 02:01:28;;;;;;;26.00;19.95;;;11.80;99.90;;;;;;4951472;28;20233;-78
2023/03/19 02:03:55;;;;;;;26.08;19.45;;;11.80;99.90;;;;;;4936083;28;20560;-77
2023/03/19 02:06:27;;;;;;;25.33;18.25;;;11.80;99.90;;;;;;4935590;29;20185;-77
2023/03/19 02:08:55;;;;;;;25.08;18.42;;;11.80;99.90;;;;;;4951272;28;20266;-80
2023/03/19 02:11:22;;;;;;;23.65;17.85;;;11.80;99.90;;;;;;4935509;29;20183;-77
2023/03/19 02:13:48;;;;;;;22.33;15.63;;;11.80;99.90;;;;;;4935547;29;20239;-75
2023/03/19 02:16:14;;;;;;;21.02;15.93;;;11.80;99.90;;;;;;4935117;29;20211;-77
2023/03/19 02:18:42;;;;;;;20.30;15.82;;;11.80;99.90;;;;;;4951248;28;20187;-78
2023/03/19 02:21:13;;;;;;;21.20;15.60;;;11.80;99.90;;;;;;4935708;29;20182;-75
2023/03/19 02:24:05;;;;;;;22.00;15.18;;;11.80;99.90;;;;;;4951083;29;20242;-76
2023/03/19 02:26:45;;;;;;;20.58;14.73;;;11.80;99.90;;;;;;4951275;28;20187;-76
2023/03/19 02:29:11;;;;;;;21.50;16.23;;;11.80;99.90;;;;;;4935051;29;20294;-76
2023/03/19 02:31:37;;;;;;;22.83;17.10;;;11.80;99.90;;;;;;4935279;29;20187;-77
2023/03/19 02:34:25;;;;;;;22.77;16.85;;;11.80;99.90;;;;;;4934838;29;20198;-76
2023/03/19 02:37:01;;;;;;;24.27;16.90;;;11.80;99.90;;;;;;4935718;29;20690;-76
2023/03/19 02:39:30;;;;;;;20.23;16.00;;;11.80;99.90;;;;;;4935650;28;20175;-78
2023/03/19 02:41:57;;;;;;;20.25;15.60;;;11.70;99.90;;;;;;4935073;28;20218;-76
2023/03/19 02:44:25;;;;;;;21.88;15.98;;;11.70;99.90;;;;;;4950630;29;20191;-77
2023/03/19 02:46:51;;;;;;;19.85;15.55;;;11.70;99.90;;;;;;4951538;29;20614;-76
2023/03/19 02:49:17;;;;;;;22.63;15.77;;;11.70;99.90;;;;;;4934861;28;20270;-78
2023/03/19 02:51:43;;;;;;;20.85;15.48;;;11.70;99.90;;;;;;4936566;29;20191;-77
2023/03/19 02:54:09;;;;;;;21.15;15.13;;;11.70;99.90;;;;;;4951306;28;20691;-77
2023/03/19 02:56:35;;;;;;;21.58;15.25;;;11.70;99.90;;;;;;4936018;29;20799;-75
2023/03/19 02:59:01;;;;;;;18.73;14.35;;;11.70;99.90;;;;;;4936549;29;20175;-78
2023/03/19 03:01:28;;;;;;;18.80;14.43;;;11.70;99.90;;;;;;4934395;29;20241;-77
2023/03/19 03:03:55;;;;;;;21.13;14.73;;;11.60;99.90;;;;;;4934593;29;20183;-76
2023/03/19 03:06:21;;;;;;;19.20;14.40;;;11.60;99.90;;;;;;4950474;29;20286;-78
2023/03/19 03:08:47;;;;;;;19.10;14.18;;;11.60;99.90;;;;;;4934716;29;20338;-77
2023/03/19 03:11:13;;;;;;;19.23;13.63;;;11.60;99.90;;;;;;4950239;29;20183;-76
2023/03/19 03:13:38;;;;;;;18.20;14.05;;;11.60;99.90;;;;;;4934507;29;20195;-75
2023/03/19 03:16:04;;;;;;;17.27;13.05;;;11.60;99.90;;;;;;4934771;29;20234;-76
2023/03/19 03:18:31;;;;;;;16.38;12.40;;;11.60;99.90;;;;;;4919135;29;20498;-75
2023/03/19 03:20:57;;;;;;;17.90;13.90;;;11.60;99.90;;;;;;4950245;29;20184;-77
2023/03/19 03:23:23;;;;;;;15.70;12.20;;;11.60;99.90;;;;;;4950780;28;20195;-80
2023/03/19 03:25:50;;;;;;;16.63;12.73;;;11.60;99.90;;;;;;4935997;29;20550;-79
2023/03/19 03:28:17;;;;;;;16.23;11.95;;;11.60;99.90;;;;;;4935926;29;20262;-76
2023/03/19 03:30:44;;;;;;;15.68;11.50;;;11.60;99.90;;;;;;4950371;29;20274;-77
2023/03/19 03:33:10;;;;;;;16.38;11.63;;;11.60;99.90;;;;;;4934163;29;20666;-76
2023/03/19 03:35:36;;;;;;;14.68;10.68;;;11.60;99.90;;;;;;4937359;29;20243;-77
2023/03/19 03:38:03;;;;;;;12.73;9.90;;;11.60;99.90;;;;;;4939038;29;20191;-77
2023/03/19 03:40:28;;;;;;;14.07;10.00;;;11.60;99.90;;;;;;4939148;29;20242;-76
2023/03/19 03:42:54;;;;;;;14.45;9.18;;;11.60;99.90;;;;;;4922902;29;20183;-81
2023/03/19 03:45:20;;;;;;;12.80;9.43;;;11.60;99.90;;;;;;4922138;29;20215;-76
2023/03/19 03:47:46;;;;;;;12.65;8.82;;;11.60;99.90;;;;;;4939635;29;20234;-76
2023/03/19 03:50:12;;;;;;;12.98;8.98;;;11.60;99.90;;;;;;4939016;29;20331;-76
2023/03/19 03:52:39;;;;;;;12.20;9.15;;;11.60;99.90;;;;;;4938266;29;20635;-78
2023/03/19 03:55:06;;;;;;;13.90;8.55;;;11.60;99.90;;;;;;4938946;29;20660;-77
2023/03/19 03:57:32;;;;;;;11.85;8.82;;;11.60;99.90;;;;;;4953673;29;20646;-77
2023/03/19 03:59:58;;;;;;;9.82;8.45;;;11.60;99.90;;;;;;4953583;29;20183;-77
2023/03/19 04:02:26;;;;;;;12.55;8.60;;;11.60;99.90;;;;;;4938867;29;20226;-77
2023/03/19 04:04:52;;;;;;;15.13;8.68;;;11.60;99.90;;;;;;4953173;29;20270;-77
2023/03/19 04:07:19;;;;;;;13.32;8.35;;;11.60;99.90;;;;;;4953642;29;20211;-77
2023/03/19 04:09:49;;;;;;;11.15;8.30;;;11.70;99.90;;;;;;4954147;29;20168;-76
2023/03/19 04:12:16;;;;;;;10.20;7.63;;;11.70;99.90;;;;;;4937489;29;20282;-77
2023/03/19 04:14:41;;;;;;;11.60;8.32;;;11.60;99.90;;;;;;4938922;29;20623;-77
2023/03/19 04:17:08;;;;;;;10.10;8.10;;;11.70;99.90;;;;;;4953237;29;20250;-77
2023/03/19 04:19:34;;;;;;;11.02;8.07;;;11.60;99.90;;;;;;4938435;29;20215;-77
2023/03/19 04:22:02;;;;;;;12.15;8.23;;;11.70;99.90;;;;;;4937974;29;20184;-77
2023/03/19 04:24:29;;;;;;;12.68;8.32;;;11.60;99.90;;;;;;4953920;29;20221;-77
2023/03/19 04:26:58;;;;;;;9.75;7.68;;;11.70;99.90;;;;;;4937042;29;20250;-77
2023/03/19 04:29:25;;;;;;;11.30;7.78;;;11.60;99.90;;;;;;4953036;29;20651;-77
2023/03/19 04:31:51;;;;;;;10.90;8.07;;;11.60;99.90;;;;;;4937170;29;20179;-76
2023/03/19 04:34:18;;;;;;;11.00;8.63;;;11.70;99.90;;;;;;4952696;29;20199;-77
2023/03/19 04:36:44;;;;;;;11.57;8.15;;;11.60;99.90;;;;;;4936564;29;20226;-77
2023/03/19 04:39:10;;;;;;;11.50;8.27;;;11.60;99.90;;;;;;4937996;29;20237;-77
2023/03/19 04:41:36;;;;;;;11.68;8.48;;;11.70;99.90;;;;;;4938526;29;20588;-76
2023/03/19 04:44:17;;;;;;;10.30;7.75;;;11.70;99.90;;;;;;4953081;28;20187;-76
2023/03/19 04:46:44;;;;;;;10.70;8.05;;;11.60;99.90;;;;;;4952782;28;20195;-75
2023/03/19 04:49:12;;;;;;;11.63;8.27;;;11.60;99.90;;;;;;4952752;29;20184;-76
2023/03/19 04:51:38;;;;;;;9.93;8.30;;;11.60;99.90;;;;;;4952743;29;20332;-75
2023/03/19 04:54:05;;;;;;;10.65;8.35;;;11.60;99.90;;;;;;4952449;29;20183;-76
2023/03/19 04:56:31;;;;;;;10.32;7.93;;;11.60;99.90;;;;;;4953138;29;20577;-77
2023/03/19 04:58:57;;;;;;;8.93;7.55;;;11.60;99.90;;;;;;4904898;29;20187;-80
2023/03/19 05:01:23;;;;;;;10.10;8.48;;;11.60;99.90;;;;;;4952176;29;20234;-75
2023/03/19 05:04:10;;;;;;;11.43;8.07;;;11.60;99.90;;;;;;4939359;29;20227;-77
2023/03/19 05:06:37;;;;;;;10.30;7.38;;;11.60;99.90;;;;;;4936461;29;20195;-76
2023/03/19 05:09:05;;;;;;;10.40;8.15;;;11.60;99.90;;;;;;4952891;29;20191;-76
2023/03/19 05:11:31;;;;;;;11.02;7.93;;;11.60;99.90;;;;;;4936299;29;20180;-76
2023/03/19 05:14:08;;;;;;;11.65;8.13;;;11.60;99.90;;;;;;4936489;29;20623;-77
2023/03/19 05:16:53;;;;;;;10.63;8.20;;;11.60;99.90;;;;;;4936233;29;20230;-75
2023/03/19 05:19:19;;;;;;;10.95;8.85;;;11.60;99.90;;;;;;4936065;29;20323;-76
2023/03/19 05:21:45;;;;;;;10.48;7.97;;;11.50;99.90;;;;;;4936853;29;20211;-77
2023/03/19 05:24:12;;;;;;;11.15;8.40;;;11.60;99.90;;;;;;4936150;29;20187;-76
2023/03/19 05:26:38;;;;;;;10.50;7.97;;;11.50;99.90;;;;;;4936103;29;20218;-77
2023/03/19 05:29:09;;;;;;;11.98;8.40;;;11.50;99.90;;;;;;4937061;29;20247;-77
2023/03/19 05:31:48;;;;;;;12.18;9.05;;;11.50;99.90;;;;;;4936377;29;20214;-76
2023/03/19 05:34:14;;;;;;;13.00;9.02;;;11.50;99.90;;;;;;4952336;29;20507;-76
2023/03/19 05:36:40;;;;;;;11.75;9.60;;;11.50;99.90;;;;;;4952028;29;20296;-76
2023/03/19 05:39:16;;;;;;;12.30;9.90;;;11.50;99.90;;;;;;4951896;29;20207;-76
2023/03/19 05:41:43;;;;;;;12.73;9.95;;;11.50;99.90;;;;;;4952010;29;20188;-76
2023/03/19 05:44:11;;;;;;;12.05;9.43;;;11.40;99.90;;;;;;4936128;29;20183;-77
2023/03/19 05:46:47;;;;;;;17.45;9.18;;;11.40;99.90;;;;;;4951942;29;20209;-76
2023/03/19 05:49:14;;;;;;;12.45;9.52;;;11.40;99.90;;;;;;4935630;29;20203;-75
2023/03/19 05:51:40;;;;;;;12.77;9.75;;;11.40;99.90;;;;;;4937758;29;20179;-75
2023/03/19 05:54:07;;;;;;;12.98;9.27;;;11.40;99.90;;;;;;4935691;29;20178;-76
2023/03/19 05:56:36;;;;;;;13.95;9.75;;;11.40;99.90;;;;;;4935574;29;20691;-78
2023/03/19 05:59:33;;;;;;;12.77;9.15;;;11.40;99.90;;;;;;4939253;29;20679;-77
2023/03/19 06:02:21;;;;;;;17.00;8.88;;;11.30;99.90;;;;;;4941902;28;20239;-75
2023/03/19 06:04:51;;;;;;;11.98;8.75;;;11.30;99.90;;;;;;4951785;29;20215;-78
2023/03/19 06:07:22;;;;;;;13.05;8.88;;;11.30;99.90;;;;;;4936035;29;20227;-75
2023/03/19 06:09:48;;;;;;;12.82;8.75;;;11.30;99.90;;;;;;4937531;29;20192;-76
2023/03/19 06:12:15;;;;;;;12.05;8.68;;;11.20;99.90;;;;;;4920524;29;20624;-76
2023/03/19 06:14:59;;;;;;;11.43;8.65;;;11.20;99.90;;;;;;4937244;29;20596;-76
2023/03/19 06:17:43;;;;;;;12.45;8.70;;;11.20;99.90;;;;;;4937661;29;20245;-79
2023/03/19 06:20:11;;;;;;;11.88;9.35;;;11.10;99.90;;;;;;4935844;29;20187;-74
2023/03/19 06:22:39;;;;;;;12.73;9.63;;;11.10;99.90;;;;;;4951517;29;20675;-76
2023/03/19 06:25:06;;;;;;;12.82;8.77;;;11.00;99.90;;;;;;4951514;29;20528;-77
2023/03/19 06:27:35;;;;;;;13.25;9.50;;;11.00;99.90;;;;;;4935489;29;20196;-77
2023/03/19 06:30:15;;;;;;;14.30;9.93;;;11.00;99.90;;;;;;4921279;29;20175;-77
2023/03/19 06:32:41;;;;;;;13.77;10.38;;;11.10;99.90;;;;;;4935703;29;20270;-76
2023/03/19 06:35:10;;;;;;;12.77;10.30;;;11.10;99.90;;;;;;4952723;28;20339;-76
2023/03/19 06:37:36;;;;;;;13.07;10.10;;;11.20;99.90;;;;;;4935658;29;20306;-77
2023/03/19 06:40:03;;;;;;;12.85;10.43;;;11.20;99.90;;;;;;4951560;29;20192;-78
2023/03/19 06:42:30;;;;;;;12.68;10.02;;;11.20;99.90;;;;;;4937413;29;20206;-77
2023/03/19 06:44:56;;;;;;;13.63;10.23;;;11.20;99.90;;;;;;4937179;29;20278;-81
2023/03/19 06:47:22;;;;;;;13.30;9.23;;;11.30;99.90;;;;;;4936033;29;20211;-75
2023/03/19 06:49:47;;;;;;;13.85;9.45;;;11.20;99.90;;;;;;4935194;29;20648;-76
2023/03/19 06:52:13;;;;;;;13.00;9.68;;;11.20;99.90;;;;;;4936796;29;20186;-76
2023/03/19 06:54:39;;;;;;;13.32;9.98;;;11.20;99.90;;;;;;4936094;29;20586;-75
2023/03/19 06:57:05;;;;;;;13.40;9.48;;;11.20;99.90;;;;;;4936720;29;20215;-75
2023/03/19 06:59:30;;;;;;;12.35;9.48;;;11.20;99.90;;;;;;4936263;29;20231;-75
2023/03/19 07:01:56;;;;;;;12.18;9.07;;;11.20;99.90;;;;;;4936210;29;20274;-75
2023/03/19 07:04:22;;;;;;;14.13;8.98;;;11.20;99.90;;;;;;4951410;29;20650;-74
2023/03/19 07:06:48;;;;;;;13.02;8.82;;;11.20;99.90;;;;;;4952342;29;20195;-75
2023/03/19 07:09:14;;;;;;;12.65;9.65;;;11.30;99.90;;;;;;4935300;29;20636;-74
2023/03/19 07:11:40;;;;;;;15.02;9.68;;;11.30;99.90;;;;;;4938763;29;20186;-77
2023/03/19 07:14:06;;;;;;;12.68;9.23;;;11.40;99.90;;;;;;4938556;29;20175;-75
2023/03/19 07:16:32;;;;;;;13.77;9.50;;;11.50;99.90;;;;;;4940534;29;20207;-77
2023/03/19 07:18:57;;;;;;;12.70;9.65;;;11.50;99.90;;;;;;4939500;29;20182;-79
2023/03/19 07:21:23;;;;;;;13.38;9.63;;;11.60;99.90;;;;;;4938910;29;20643;-75
2023/03/19 07:23:51;;;;;;;13.15;10.27;;;11.70;99.90;;;;;;4922554;29;20218;-75
2023/03/19 07:26:17;;;;;;;12.40;9.98;;;11.80;99.90;;;;;;4938610;29;20219;-76
2023/03/19 07:28:43;;;;;;;12.80;9.65;;;12.00;99.90;;;;;;4939743;29;20254;-76
2023/03/19 07:31:09;;;;;;;13.50;10.23;;;12.20;99.90;;;;;;4940373;29;20475;-76
2023/03/19 07:33:35;;;;;;;15.48;10.02;;;12.40;99.90;;;;;;4939263;29;20610;-77
2023/03/19 07:36:01;;;;;;;13.88;11.10;;;12.60;99.90;;;;;;4939852;29;20306;-75
2023/03/19 07:38:27;;;;;;;13.18;10.43;;;12.70;99.90;;;;;;4938752;29;20172;-75
2023/03/19 07:40:52;;;;;;;14.13;10.93;;;12.90;99.90;;;;;;4954917;29;20183;-77
2023/03/19 07:43:18;;;;;;;13.60;10.60;;;13.20;99.90;;;;;;4938824;29;20627;-79
2023/03/19 07:45:44;;;;;;;12.52;10.55;;;13.40;99.90;;;;;;4938637;29;20235;-75
2023/03/19 07:48:10;;;;;;;13.48;10.80;;;13.60;99.90;;;;;;4938672;29;20180;-80
2023/03/19 07:50:36;;;;;;;13.88;10.73;;;13.80;99.90;;;;;;4953806;29;20217;-75
2023/03/19 07:53:02;;;;;;;15.30;11.65;;;14.00;99.90;;;;;;4939706;29;20627;-75
2023/03/19 07:55:28;;;;;;;13.70;10.40;;;14.20;99.90;;;;;;4938036;29;20190;-75
2023/03/19 07:57:54;;;;;;;16.52;11.63;;;14.20;99.90;;;;;;4938940;29;20180;-75
2023/03/19 08:00:20;;;;;;;12.88;10.75;;;14.30;99.90;;;;;;4938751;29;20678;-75
2023/03/19 08:02:46;;;;;;;16.60;11.15;;;14.40;99.90;;;;;;4939198;29;20298;-77
2023/03/19 08:05:11;;;;;;;15.45;11.27;;;14.50;99.90;;;;;;4939654;29;20632;-75
2023/03/19 08:07:37;;;;;;;15.65;11.98;;;14.60;99.90;;;;;;4938650;29;20178;-81
2023/03/19 08:10:04;;;;;;;14.50;11.60;;;14.60;99.90;;;;;;4938419;29;20180;-77
2023/03/19 08:12:30;;;;;;;17.67;13.20;;;14.60;99.90;;;;;;4938967;29;20188;-75
2023/03/19 08:14:56;;;;;;;18.13;12.98;;;14.50;99.90;;;;;;4938595;29;20270;-77
2023/03/19 08:17:22;;;;;;;16.27;12.65;;;14.40;99.90;;;;;;4937416;29;20326;-76
2023/03/19 08:19:48;;;;;;;16.08;13.07;;;14.30;99.90;;;;;;4938682;29;20563;-78
2023/03/19 08:22:14;;;;;;;17.25;13.23;;;14.30;99.90;;;;;;4936530;29;20212;-75
2023/03/19 08:24:39;;;;;;;16.67;12.93;;;14.40;99.90;;;;;;4953206;28;20275;-77
2023/03/19 08:27:06;;;;;;;18.40;13.68;;;14.50;99.90;;;;;;4952767;29;20187;-74
2023/03/19 08:29:32;;;;;;;19.20;14.63;;;14.60;99.90;;;;;;4938064;29;20203;-76
2023/03/19 08:31:59;;;;;;;18.88;15.15;;;14.60;99.90;;;;;;4938249;29;20628;-75
2023/03/19 08:34:25;;;;;;;20.58;14.80;;;14.80;99.90;;;;;;4938460;29;20215;-75
2023/03/19 08:36:52;;;;;;;21.45;15.15;;;15.00;99.90;;;;;;4938476;29;20219;-75
2023/03/19 08:39:17;;;;;;;19.45;15.90;;;15.20;99.90;;;;;;4937699;29;20192;-75
2023/03/19 08:41:43;;;;;;;21.95;15.82;;;15.30;99.90;;;;;;4938218;29;20183;-75
2023/03/19 08:44:09;;;;;;;21.02;15.32;;;15.40;99.90;;;;;;4937789;29;20187;-75
2023/03/19 08:46:35;;;;;;;21.85;16.38;;;15.40;99.90;;;;;;4938139;29;20194;-76
2023/03/19 08:49:01;;;;;;;23.83;16.38;;;15.40;99.90;;;;;;4938605;28;20187;-78
2023/03/19 08:51:29;;;;;;;20.92;16.67;;;15.40;99.90;;;;;;4937449;29;20647;-77
2023/03/19 08:53:55;;;;;;;20.38;15.55;;;15.40;99.90;;;;;;4937543;29;20176;-76
2023/03/19 08:56:20;;;;;;;19.70;15.52;;;15.30;99.90;;;;;;4937943;29;20249;-76
2023/03/19 08:58:46;;;;;;;21.92;15.93;;;15.20;99.90;;;;;;4952638;29;20198;-76
2023/03/19 09:01:13;;;;;;;19.70;15.85;;;15.10;99.90;;;;;;4937296;29;20186;-80
2023/03/19 09:03:40;;;;;;;17.55;14.43;;;14.90;99.90;;;;;;4938061;29;20234;-74
2023/03/19 09:06:09;;;;;;;20.83;14.40;;;14.80;99.90;;;;;;4937387;29;20670;-74
2023/03/19 09:08:36;;;;;;;20.08;14.60;;;14.60;99.90;;;;;;4937731;29;20175;-74
2023/03/19 09:11:04;;;;;;;15.82;13.10;;;14.50;99.90;;;;;;4952301;28;20563;-76
2023/03/19 09:13:30;;;;;;;15.82;12.82;;;14.40;99.90;;;;;;4938231;29;20194;-76
2023/03/19 09:15:55;;;;;;;17.98;13.38;;;14.40;99.90;;;;;;4936304;29;20301;-79
2023/03/19 09:18:24;;;;;;;17.75;13.40;;;14.50;99.90;;;;;;4936004;29;20613;-76
2023/03/19 09:20:52;;;;;;;19.50;14.07;;;14.60;99.90;;;;;;4936074;29;20705;-80
2023/03/19 09:23:19;;;;;;;19.33;13.52;;;14.60;99.90;;;;;;4936951;29;20187;-77
2023/03/19 09:25:45;;;;;;;17.50;13.55;;;14.70;99.90;;;;;;4952993;29;20183;-76
2023/03/19 09:28:11;;;;;;;17.40;13.13;;;14.80;99.90;;;;;;4952767;29;20184;-77
2023/03/19 09:30:38;;;;;;;17.80;13.20;;;15.00;99.90;;;;;;4937404;29;20355;-76
2023/03/19 09:33:05;;;;;;;17.65;12.90;;;15.00;99.90;;;;;;4934553;29;20195;-74
2023/03/19 09:35:31;;;;;;;17.92;13.07;;;15.00;99.90;;;;;;4935735;29;20192;-76
2023/03/19 09:37:58;;;;;;;17.35;12.95;;;14.90;99.90;;;;;;4937099;29;20207;-78
2023/03/19 09:40:34;;;;;;;16.30;12.65;;;14.90;99.90;;;;;;4937627;29;20187;-74
2023/03/19 09:43:22;;;;;;;16.45;12.43;;;14.80;99.90;;;;;;4937438;29;20267;-74
2023/03/19 09:45:48;;;;;;;16.48;11.93;;;14.70;99.90;;;;;;4936870;29;20179;-76
2023/03/19 09:48:27;;;;;;;15.95;12.07;;;14.60;99.90;;;;;;4937188;29;20184;-75
2023/03/19 09:50:54;;;;;;;16.20;12.60;;;14.50;99.90;;;;;;4936627;29;20167;-76
2023/03/19 09:53:31;;;;;;;15.90;12.38;;;14.50;99.90;;;;;;4936270;29;20640;-77
2023/03/19 09:55:59;;;;;;;16.48;12.38;;;14.40;99.90;;;;;;4951563;29;20690;-77
2023/03/19 09:58:32;;;;;;;17.15;12.00;;;14.40;99.90;;;;;;4936491;29;20168;-76
2023/03/19 10:00:59;;;;;;;18.10;12.50;;;14.30;99.90;;;;;;4951442;29;20251;-77
2023/03/19 10:03:57;;;;;;;16.60;12.10;;;14.30;99.90;;;;;;4936795;29;20191;-77
2023/03/19 10:06:36;;;;;;;18.92;12.82;;;14.20;99.90;;;;;;4935908;29;20230;-81
2023/03/19 10:09:14;;;;;;;14.88;11.20;;;14.20;99.90;;;;;;4951446;28;20653;-75
2023/03/19 10:12:08;;;;;;;16.38;11.35;;;14.20;99.90;;;;;;4936987;29;20156;-76
2023/03/19 10:14:55;;;;;;;15.90;11.52;;;14.20;99.90;;;;;;4936088;29;20163;-76
2023/03/19 10:17:29;;;;;;;17.45;12.15;;;14.20;99.90;;;;;;4951041;28;20537;-76
2023/03/19 10:20:28;;;;;;;16.05;12.93;;;14.20;99.90;;;;;;4936327;29;20230;-75
2023/03/19 10:23:05;;;;;;;16.55;12.07;;;14.10;99.90;;;;;;4935969;29;20186;-75
2023/03/19 10:25:32;;;;;;;16.23;11.77;;;14.10;99.90;;;;;;4950454;28;20175;-79
2023/03/19 10:28:10;;;;;;;15.60;12.13;;;14.10;99.90;;;;;;4935448;29;20183;-76
2023/03/19 10:30:36;;;;;;;18.52;11.90;;;14.10;99.90;;;;;;4935176;29;20172;-75
2023/03/19 10:33:22;;;;;;;16.38;12.45;;;14.10;99.90;;;;;;4935508;29;20172;-81
2023/03/19 10:35:56;;;;;;;17.80;12.60;;;14.10;99.90;;;;;;4935805;29;20203;-75
2023/03/19 10:38:24;;;;;;;16.40;12.20;;;14.10;99.90;;;;;;4935735;29;20176;-77
2023/03/19 10:41:27;;;;;;;17.20;12.52;;;14.10;99.90;;;;;;4935728;29;20250;-76
2023/03/19 10:43:57;;;;;;;17.52;11.77;;;14.20;99.90;;;;;;4935686;29;20269;-80
2023/03/19 10:46:23;;;;;;;16.55;12.02;;;14.20;99.90;;;;;;4935151;29;20230;-76
2023/03/19 10:48:49;;;;;;;16.17;12.68;;;14.20;99.90;;;;;;4936610;29;20631;-75
2023/03/19 10:51:24;;;;;;;17.38;13.23;;;14.20;99.90;;;;;;4935802;29;20270;-76
2023/03/19 10:53:52;;;;;;;15.88;11.85;;;14.30;99.90;;;;;;4934592;29;20179;-77
2023/03/19 10:56:29;;;;;;;17.42;12.52;;;14.30;99.90;;;;;;4934459;28;20691;-81
2023/03/19 10:58:59;;;;;;;14.80;11.27;;;14.30;99.90;;;;;;4950234;28;20210;-76
2023/03/19 11:01:37;;;;;;;14.10;11.55;;;14.30;99.90;;;;;;4950420;29;20247;-76
2023/03/19 11:04:21;;;;;;;17.00;11.82;;;14.30;99.90;;;;;;4936442;29;20164;-76
2023/03/19 11:06:52;;;;;;;14.73;11.98;;;14.30;99.90;;;;;;4935624;29;20190;-75
2023/03/19 11:09:33;;;;;;;17.15;12.70;;;14.30;99.90;;;;;;4935268;29;20175;-76
2023/03/19 11:12:25;;;;;;;15.52;12.40;;;14.30;99.90;;;;;;4935860;29;20255;-76
2023/03/19 11:14:55;;;;;;;17.40;13.07;;;14.30;99.90;;;;;;4935185;29;20172;-76
2023/03/19 11:17:26;;;;;;;17.58;12.85;;;14.20;99.90;;;;;;4935085;29;20253;-75
2023/03/19 11:19:58;;;;;;;18.58;12.98;;;14.10;99.90;;;;;;4935761;29;20184;-75
2023/03/19 11:22:28;;;;;;;19.30;14.32;;;14.10;99.90;;;;;;4935353;29;20176;-76
2023/03/19 11:24:58;;;;;;;19.05;13.80;;;14.00;99.90;;;;;;4934772;29;20168;-75
2023/03/19 11:27:33;;;;;;;19.13;14.65;;;14.00;99.90;;;;;;4935737;29;20179;-76
2023/03/19 11:30:00;;;;;;;22.80;16.45;;;13.90;99.90;;;;;;4935015;29;20202;-77
2023/03/19 11:32:48;;;;;;;21.70;16.17;;;13.90;99.90;;;;;;4933655;29;20187;-79
2023/03/19 11:35:20;;;;;;;20.50;15.77;;;13.80;99.90;;;;;;4935477;29;20176;-75
2023/03/19 11:37:52;;;;;;;20.85;16.23;;;13.80;99.90;;;;;;4935195;29;20259;-76
2023/03/19 11:40:39;;;;;;;22.08;16.02;;;13.80;99.90;;;;;;4935165;29;20175;-75
2023/03/19 11:43:42;;;;;;;21.92;16.35;;;13.80;99.90;;;;;;4934530;29;20191;-75
2023/03/19 11:46:46;;;;;;;20.95;16.13;;;13.80;99.90;;;;;;4935128;29;20175;-74
2023/03/19 11:49:18;;;;;;;20.95;15.68;;;13.80;99.90;;;;;;4934568;29;20191;-76
2023/03/19 11:51:59;;;;;;;21.27;15.63;;;13.90;99.90;;;;;;4950200;28;20636;-74
2023/03/19 11:54:48;;;;;;;18.80;14.38;;;14.00;99.90;;;;;;4934828;29;20255;-75
2023/03/19 11:57:35;;;;;;;19.45;14.63;;;14.10;99.90;;;;;;4937602;29;20207;-75
2023/03/19 12:00:24;;;;;;;19.55;14.70;;;14.10;99.90;;;;;;4939480;29;20163;-75
2023/03/19 12:03:13;;;;;;;19.27;14.77;;;14.10;99.90;;;;;;4937930;29;20270;-75
2023/03/19 12:05:57;;;;;;;18.63;13.82;;;14.20;99.90;;;;;;4938571;29;20192;-75
2023/03/19 12:08:43;;;;;;;22.75;15.65;;;14.10;99.90;;;;;;4937400;29;20175;-74
2023/03/19 12:11:16;;;;;;;20.90;15.38;;;14.10;99.90;;;;;;4937898;29;20607;-76
2023/03/19 12:13:48;;;;;;;20.27;14.73;;;14.00;99.90;;;;;;4938442;29;20176;-76
2023/03/19 12:16:48;;;;;;;25.38;16.20;;;14.00;99.90;;;;;;4938555;29;20187;-75
2023/03/19 12:19:14;;;;;;;21.13;15.60;;;14.10;99.90;;;;;;4937307;29;20254;-77
2023/03/19 12:22:09;;;;;;;22.52;16.27;;;14.10;99.90;;;;;;4938160;29;20631;-76
2023/03/19 12:24:56;;;;;;;20.65;14.70;;;14.20;99.90;;;;;;4938036;29;20254;-82
2023/03/19 12:27:34;;;;;;;19.63;15.13;;;14.30;99.90;;;;;;4942438;29;20167;-77
2023/03/19 12:30:19;;;;;;;22.45;14.65;;;14.30;99.90;;;;;;4953030;28;20187;-74
2023/03/19 12:33:06;;;;;;;23.17;15.07;;;14.30;99.90;;;;;;4937193;29;20183;-75
2023/03/19 12:35:40;;;;;;;22.52;15.50;;;14.30;99.90;;;;;;4938159;29;20185;-74
2023/03/19 12:38:25;;;;;;;23.17;15.52;;;14.40;99.90;;;;;;4937978;29;20258;-75
2023/03/19 12:41:06;;;;;;;24.23;16.95;;;14.30;99.90;;;;;;4937781;28;20640;-74
2023/03/19 12:43:37;;;;;;;25.67;17.27;;;14.30;99.90;;;;;;4937964;29;20265;-74
2023/03/19 12:46:13;;;;;;;25.95;17.48;;;14.20;99.90;;;;;;4952024;28;20195;-77
2023/03/19 12:48:45;;;;;;;25.23;17.40;;;14.20;99.90;;;;;;4936356;28;20175;-75